DLH136 LZIB-EDDK
Flight info
| Callsign | DLH136 |
|---|---|
| Flight time | N/A |
| Altitude | 38000 |
| Route | BERVA2E BERVA M748 ODNEM DCT HDO M748 BOLBO DCT BATEL DCT AMALI P717 SAS DCT LARBU DCT PODER Z189 RUNER T858 KOPAG KOPAG1F |
| Aircraft | A359/H-SDE2E3GHIJ3J4J5LM1ORWXY/LB1D1 |
Departure
| Time | 2026-04-29 18:38 |
|---|---|
| Airport | M. R. Štefánik Airport (LZIB) |
Arrival
| Time | N/A |
|---|---|
| Airport | Cologne Bonn Airport (EDDK) |
| Time | Latitude | Longitude | Altitude | Speed | Heading |
|---|---|---|---|---|---|
| 2026-04-29 18:00 | 48.17274 | 17.20418 | 450 ft | 0 kts | 311° |
| 2026-04-29 18:23 | 48.17257 | 17.20439 | 449 ft | 4 kts | 2° |
| 2026-04-29 18:23 | 48.17245 | 17.20432 | 448 ft | 4 kts | 51° |
| 2026-04-29 18:23 | 48.17229 | 17.20402 | 446 ft | 3 kts | 42° |
| 2026-04-29 18:24 | 48.17224 | 17.20395 | 449 ft | 0 kts | 41° |
| 2026-04-29 18:28 | 48.17231 | 17.20403 | 449 ft | 5 kts | 40° |
| 2026-04-29 18:28 | 48.17261 | 17.20439 | 450 ft | 6 kts | 31° |
| 2026-04-29 18:29 | 48.17293 | 17.20439 | 450 ft | 4 kts | 339° |
| 2026-04-29 18:29 | 48.17317 | 17.20413 | 450 ft | 4 kts | 322° |
| 2026-04-29 18:29 | 48.17356 | 17.20363 | 450 ft | 9 kts | 319° |
| 2026-04-29 18:29 | 48.17409 | 17.20314 | 450 ft | 9 kts | 341° |
| 2026-04-29 18:30 | 48.17452 | 17.20309 | 450 ft | 0 kts | 4° |
| 2026-04-29 18:30 | 48.17453 | 17.20309 | 450 ft | 0 kts | 4° |
| 2026-04-29 18:31 | 48.17464 | 17.20311 | 450 ft | 8 kts | 8° |
| 2026-04-29 18:31 | 48.17517 | 17.20361 | 450 ft | 9 kts | 58° |
| 2026-04-29 18:31 | 48.17517 | 17.20458 | 450 ft | 10 kts | 114° |
| 2026-04-29 18:31 | 48.17479 | 17.20536 | 450 ft | 9 kts | 131° |
| 2026-04-29 18:32 | 48.17435 | 17.20606 | 451 ft | 9 kts | 133° |
| 2026-04-29 18:32 | 48.17337 | 17.20763 | 449 ft | 12 kts | 133° |
| 2026-04-29 18:32 | 48.17278 | 17.20856 | 449 ft | 13 kts | 134° |
| 2026-04-29 18:33 | 48.17212 | 17.20958 | 448 ft | 14 kts | 134° |
| 2026-04-29 18:33 | 48.17124 | 17.20987 | 447 ft | 13 kts | 206° |
| 2026-04-29 18:33 | 48.17058 | 17.20902 | 449 ft | 12 kts | 225° |
| 2026-04-29 18:33 | 48.17001 | 17.20812 | 449 ft | 12 kts | 226° |
| 2026-04-29 18:34 | 48.16942 | 17.20720 | 449 ft | 12 kts | 226° |
| 2026-04-29 18:34 | 48.16902 | 17.20657 | 449 ft | 13 kts | 226° |
| 2026-04-29 18:34 | 48.16818 | 17.20526 | 450 ft | 13 kts | 225° |
| 2026-04-29 18:34 | 48.16752 | 17.20428 | 450 ft | 14 kts | 223° |
| 2026-04-29 18:35 | 48.16679 | 17.20331 | 449 ft | 14 kts | 221° |
| 2026-04-29 18:35 | 48.16603 | 17.20234 | 449 ft | 15 kts | 220° |
| 2026-04-29 18:35 | 48.16525 | 17.20133 | 450 ft | 15 kts | 220° |
| 2026-04-29 18:35 | 48.16444 | 17.20031 | 450 ft | 15 kts | 220° |
| 2026-04-29 18:36 | 48.16363 | 17.19927 | 450 ft | 13 kts | 220° |
| 2026-04-29 18:36 | 48.16301 | 17.19847 | 456 ft | 12 kts | 220° |
| 2026-04-29 18:36 | 48.16226 | 17.19805 | 451 ft | 12 kts | 174° |
| 2026-04-29 18:36 | 48.16158 | 17.19866 | 450 ft | 12 kts | 143° |
| 2026-04-29 18:37 | 48.16131 | 17.19972 | 450 ft | 11 kts | 76° |
| 2026-04-29 18:37 | 48.16182 | 17.20083 | 450 ft | 22 kts | 45° |
| 2026-04-29 18:37 | 48.16472 | 17.20501 | 449 ft | 96 kts | 44° |
| 2026-04-29 18:37 | 48.17127 | 17.21424 | 542 ft | 152 kts | 39° |
| 2026-04-29 18:38 | 48.17968 | 17.22578 | 1096 ft | 169 kts | 39° |
| 2026-04-29 18:38 | 48.18804 | 17.23799 | 2183 ft | 165 kts | 42° |
| 2026-04-29 18:38 | 48.19682 | 17.25088 | 2851 ft | 191 kts | 42° |
| 2026-04-29 18:38 | 48.20720 | 17.26592 | 3397 ft | 219 kts | 43° |
| 2026-04-29 18:39 | 48.21870 | 17.28177 | 4297 ft | 230 kts | 39° |
| 2026-04-29 18:39 | 48.23177 | 17.29640 | 5290 ft | 239 kts | 35° |
| 2026-04-29 18:39 | 48.24550 | 17.31089 | 6227 ft | 243 kts | 34° |
| 2026-04-29 18:39 | 48.25946 | 17.32558 | 6803 ft | 248 kts | 33° |
| 2026-04-29 18:40 | 48.27378 | 17.34053 | 7329 ft | 253 kts | 32° |
| 2026-04-29 18:40 | 48.28826 | 17.35569 | 7914 ft | 256 kts | 32° |
| 2026-04-29 18:40 | 48.30295 | 17.37106 | 8498 ft | 260 kts | 31° |
| 2026-04-29 18:40 | 48.31842 | 17.38534 | 9103 ft | 261 kts | 27° |
| 2026-04-29 18:41 | 48.37063 | 17.40254 | 10648 ft | 271 kts | 350° |
| 2026-04-29 18:41 | 48.38958 | 17.39634 | 10893 ft | 285 kts | 344° |
| 2026-04-29 18:42 | 48.40900 | 17.38733 | 11143 ft | 299 kts | 341° |
| 2026-04-29 18:42 | 48.42906 | 17.37680 | 11393 ft | 312 kts | 340° |
| 2026-04-29 18:42 | 48.45002 | 17.36557 | 11663 ft | 324 kts | 340° |
| 2026-04-29 18:42 | 48.47139 | 17.35436 | 11927 ft | 335 kts | 340° |
| 2026-04-29 18:43 | 48.49377 | 17.34298 | 12188 ft | 345 kts | 341° |
| 2026-04-29 18:43 | 48.51685 | 17.33156 | 12644 ft | 349 kts | 341° |
| 2026-04-29 18:43 | 48.54005 | 17.32028 | 13120 ft | 352 kts | 341° |
| 2026-04-29 18:43 | 48.56361 | 17.30891 | 13599 ft | 355 kts | 340° |
| 2026-04-29 18:44 | 48.58721 | 17.29753 | 14094 ft | 358 kts | 340° |
| 2026-04-29 18:44 | 48.61076 | 17.28617 | 14519 ft | 360 kts | 340° |
| 2026-04-29 18:44 | 48.63468 | 17.27458 | 14950 ft | 362 kts | 340° |
| 2026-04-29 18:44 | 48.65872 | 17.26292 | 15388 ft | 364 kts | 340° |
| 2026-04-29 18:45 | 48.68286 | 17.25117 | 15932 ft | 365 kts | 340° |
| 2026-04-29 18:45 | 48.70708 | 17.23937 | 16259 ft | 366 kts | 340° |
| 2026-04-29 18:45 | 48.73157 | 17.22743 | 16322 ft | 366 kts | 340° |
| 2026-04-29 18:45 | 48.75554 | 17.21572 | 16424 ft | 369 kts | 340° |
| 2026-04-29 18:46 | 48.78032 | 17.20361 | 16902 ft | 370 kts | 340° |
| 2026-04-29 18:46 | 48.80461 | 17.19173 | 17387 ft | 371 kts | 340° |
| 2026-04-29 18:46 | 48.82943 | 17.17867 | 17840 ft | 372 kts | 336° |
| 2026-04-29 18:46 | 48.85245 | 17.16192 | 18254 ft | 373 kts | 329° |
| 2026-04-29 18:47 | 48.87408 | 17.14026 | 18694 ft | 374 kts | 323° |
| 2026-04-29 18:47 | 48.89489 | 17.11611 | 19055 ft | 376 kts | 321° |
| 2026-04-29 18:47 | 48.91518 | 17.09082 | 19438 ft | 378 kts | 319° |
| 2026-04-29 18:47 | 48.93532 | 17.06483 | 19844 ft | 381 kts | 319° |
| 2026-04-29 18:48 | 48.95551 | 17.03849 | 20406 ft | 384 kts | 319° |
| 2026-04-29 18:48 | 48.97564 | 17.01228 | 21006 ft | 386 kts | 319° |
| 2026-04-29 18:48 | 48.99626 | 16.98559 | 21560 ft | 389 kts | 320° |
| 2026-04-29 18:48 | 49.01872 | 16.96260 | 22050 ft | 394 kts | 332° |
| 2026-04-29 18:49 | 49.04481 | 16.94851 | 22581 ft | 398 kts | 343° |
| 2026-04-29 18:49 | 49.07185 | 16.93865 | 23107 ft | 401 kts | 345° |
| 2026-04-29 18:49 | 49.09929 | 16.92917 | 23583 ft | 405 kts | 345° |
| 2026-04-29 18:49 | 49.12690 | 16.91967 | 24032 ft | 408 kts | 345° |
| 2026-04-29 18:50 | 49.15463 | 16.91014 | 24419 ft | 411 kts | 345° |
| 2026-04-29 18:50 | 49.18263 | 16.90051 | 24808 ft | 415 kts | 346° |
| 2026-04-29 18:50 | 49.21100 | 16.88978 | 25080 ft | 420 kts | 345° |
| 2026-04-29 18:50 | 49.23878 | 16.87524 | 25452 ft | 423 kts | 337° |
| 2026-04-29 18:51 | 49.26481 | 16.85380 | 25834 ft | 427 kts | 327° |
| 2026-04-29 18:51 | 49.28865 | 16.82643 | 26220 ft | 430 kts | 322° |
| 2026-04-29 18:51 | 49.31143 | 16.79638 | 26602 ft | 434 kts | 320° |
| 2026-04-29 18:51 | 49.33346 | 16.76511 | 26975 ft | 437 kts | 318° |
| 2026-04-29 18:52 | 49.35571 | 16.73251 | 27347 ft | 440 kts | 318° |
| 2026-04-29 18:52 | 49.37794 | 16.69974 | 27657 ft | 443 kts | 318° |
| 2026-04-29 18:52 | 49.40028 | 16.66696 | 27972 ft | 446 kts | 319° |
| 2026-04-29 18:52 | 49.42248 | 16.63463 | 28326 ft | 448 kts | 319° |
| 2026-04-29 18:53 | 49.44524 | 16.60167 | 28663 ft | 451 kts | 319° |
| 2026-04-29 18:53 | 49.46824 | 16.56846 | 28912 ft | 456 kts | 320° |
| 2026-04-29 18:53 | 49.49167 | 16.53470 | 29152 ft | 459 kts | 320° |
| 2026-04-29 18:53 | 49.51492 | 16.50118 | 29528 ft | 461 kts | 320° |
| 2026-04-29 18:54 | 49.53843 | 16.46722 | 29855 ft | 462 kts | 320° |
| 2026-04-29 18:54 | 49.56161 | 16.43370 | 30175 ft | 463 kts | 320° |
| 2026-04-29 18:54 | 49.58539 | 16.39922 | 30612 ft | 462 kts | 320° |
| 2026-04-29 18:54 | 49.60835 | 16.36586 | 30896 ft | 461 kts | 320° |
| 2026-04-29 18:55 | 49.63176 | 16.33182 | 31150 ft | 463 kts | 320° |
| 2026-04-29 18:55 | 49.65525 | 16.29762 | 31465 ft | 462 kts | 320° |
| 2026-04-29 18:55 | 49.67861 | 16.26354 | 31795 ft | 461 kts | 320° |
| 2026-04-29 18:55 | 49.70185 | 16.22959 | 32104 ft | 461 kts | 320° |
| 2026-04-29 18:56 | 49.72518 | 16.19548 | 32394 ft | 460 kts | 320° |
| 2026-04-29 18:56 | 49.74843 | 16.16145 | 32681 ft | 460 kts | 320° |
| 2026-04-29 18:56 | 49.77168 | 16.12736 | 32865 ft | 462 kts | 320° |
| 2026-04-29 18:56 | 49.79510 | 16.09299 | 33185 ft | 461 kts | 320° |
| 2026-04-29 18:57 | 49.81818 | 16.05905 | 33515 ft | 459 kts | 320° |
| 2026-04-29 18:57 | 49.84130 | 16.02498 | 33787 ft | 458 kts | 321° |
| 2026-04-29 18:57 | 49.86438 | 15.99093 | 34141 ft | 456 kts | 321° |
| 2026-04-29 18:57 | 49.88736 | 15.95700 | 34459 ft | 454 kts | 321° |
| 2026-04-29 18:58 | 49.91017 | 15.92327 | 34655 ft | 454 kts | 320° |
| 2026-04-29 18:58 | 49.93274 | 15.88988 | 34793 ft | 455 kts | 320° |
| 2026-04-29 18:58 | 49.95600 | 15.85543 | 34945 ft | 455 kts | 320° |
| 2026-04-29 18:58 | 49.97859 | 15.82190 | 35083 ft | 456 kts | 320° |
| 2026-04-29 18:59 | 50.00148 | 15.78787 | 35267 ft | 456 kts | 320° |
| 2026-04-29 18:59 | 50.02443 | 15.75371 | 35406 ft | 457 kts | 320° |
| 2026-04-29 18:59 | 50.04734 | 15.71956 | 35552 ft | 457 kts | 320° |
| 2026-04-29 18:59 | 50.07033 | 15.68523 | 35658 ft | 457 kts | 320° |
| 2026-04-29 19:00 | 50.09329 | 15.65090 | 35801 ft | 457 kts | 320° |
| 2026-04-29 19:00 | 50.11623 | 15.61657 | 35930 ft | 458 kts | 320° |
| 2026-04-29 19:00 | 50.13912 | 15.58225 | 36107 ft | 457 kts | 320° |
| 2026-04-29 19:00 | 50.16195 | 15.54797 | 36254 ft | 457 kts | 320° |
| 2026-04-29 19:01 | 50.20788 | 15.47888 | 36463 ft | 458 kts | 320° |
| 2026-04-29 19:01 | 50.23069 | 15.44449 | 36576 ft | 458 kts | 320° |
| 2026-04-29 19:01 | 50.25384 | 15.40954 | 36699 ft | 459 kts | 320° |
| 2026-04-29 19:02 | 50.27681 | 15.37481 | 36809 ft | 459 kts | 320° |
| 2026-04-29 19:02 | 50.29214 | 15.35160 | 36853 ft | 459 kts | 320° |
| 2026-04-29 19:02 | 50.32238 | 15.30576 | 37059 ft | 458 kts | 320° |
| 2026-04-29 19:02 | 50.34527 | 15.27101 | 37122 ft | 459 kts | 320° |
| 2026-04-29 19:03 | 50.39113 | 15.20124 | 37302 ft | 460 kts | 320° |
| 2026-04-29 19:03 | 50.41418 | 15.16609 | 37430 ft | 459 kts | 320° |
| 2026-04-29 19:03 | 50.43705 | 15.13116 | 37560 ft | 459 kts | 320° |
| 2026-04-29 19:04 | 50.45988 | 15.09626 | 37664 ft | 459 kts | 319° |
| 2026-04-29 19:04 | 50.48282 | 15.06114 | 37755 ft | 459 kts | 319° |
| 2026-04-29 19:04 | 50.52852 | 14.99101 | 37931 ft | 458 kts | 319° |
| 2026-04-29 19:05 | 50.55091 | 14.95657 | 38063 ft | 457 kts | 319° |
| 2026-04-29 19:05 | 50.57345 | 14.92185 | 38198 ft | 456 kts | 319° |
| 2026-04-29 19:05 | 50.59628 | 14.88665 | 38299 ft | 455 kts | 319° |
| 2026-04-29 19:05 | 50.61885 | 14.85180 | 38309 ft | 457 kts | 319° |
| 2026-04-29 19:06 | 50.66437 | 14.78136 | 38363 ft | 459 kts | 319° |
| 2026-04-29 19:07 | 50.73288 | 14.67494 | 38425 ft | 460 kts | 319° |
| 2026-04-29 19:07 | 50.77809 | 14.60446 | 38416 ft | 460 kts | 319° |
| 2026-04-29 19:08 | 50.82361 | 14.53331 | 38425 ft | 460 kts | 319° |
| 2026-04-29 19:08 | 50.86914 | 14.46191 | 38423 ft | 460 kts | 319° |
| 2026-04-29 19:09 | 50.91460 | 14.39042 | 38425 ft | 460 kts | 319° |
| 2026-04-29 19:09 | 50.96074 | 14.32041 | 38434 ft | 458 kts | 322° |
| 2026-04-29 19:10 | 51.00899 | 14.25543 | 38430 ft | 457 kts | 324° |
| 2026-04-29 19:10 | 51.04970 | 14.20109 | 38431 ft | 460 kts | 323° |
| 2026-04-29 19:11 | 51.09857 | 14.13465 | 38428 ft | 462 kts | 323° |
| 2026-04-29 19:11 | 51.14704 | 14.06761 | 38427 ft | 462 kts | 322° |
| 2026-04-29 19:12 | 51.19558 | 14.00003 | 38446 ft | 462 kts | 322° |
| 2026-04-29 19:12 | 51.24396 | 13.93257 | 38449 ft | 463 kts | 323° |
| 2026-04-29 19:13 | 51.29251 | 13.86481 | 38448 ft | 464 kts | 323° |
| 2026-04-29 19:13 | 51.34119 | 13.79664 | 38427 ft | 465 kts | 322° |
| 2026-04-29 19:14 | 51.38945 | 13.72871 | 38432 ft | 464 kts | 322° |
| 2026-04-29 19:14 | 51.43801 | 13.66018 | 38429 ft | 464 kts | 322° |
| 2026-04-29 19:15 | 51.48650 | 13.59171 | 38434 ft | 464 kts | 322° |
| 2026-04-29 19:15 | 51.53503 | 13.52294 | 38445 ft | 465 kts | 323° |
| 2026-04-29 19:16 | 51.58348 | 13.45410 | 38448 ft | 469 kts | 323° |
| 2026-04-29 19:16 | 51.63238 | 13.38441 | 38452 ft | 470 kts | 322° |
| 2026-04-29 19:17 | 51.68133 | 13.31448 | 38456 ft | 469 kts | 322° |
| 2026-04-29 19:17 | 51.73004 | 13.24456 | 38458 ft | 469 kts | 322° |
| 2026-04-29 19:18 | 51.77839 | 13.17348 | 38447 ft | 471 kts | 319° |
| 2026-04-29 19:18 | 51.81861 | 13.08861 | 38448 ft | 479 kts | 309° |
| 2026-04-29 19:19 | 51.85398 | 12.99755 | 38446 ft | 480 kts | 307° |
| 2026-04-29 19:19 | 51.88699 | 12.90339 | 38448 ft | 486 kts | 299° |
| 2026-04-29 19:20 | 51.90763 | 12.79833 | 38449 ft | 494 kts | 289° |
| 2026-04-29 19:20 | 51.92243 | 12.68884 | 38454 ft | 497 kts | 287° |
| 2026-04-29 19:21 | 51.93600 | 12.57920 | 38451 ft | 497 kts | 287° |
| 2026-04-29 19:21 | 51.94969 | 12.46988 | 38451 ft | 497 kts | 287° |
| 2026-04-29 19:22 | 51.96364 | 12.36011 | 38452 ft | 497 kts | 287° |
| 2026-04-29 19:22 | 51.97757 | 12.25033 | 38449 ft | 496 kts | 287° |
| 2026-04-29 19:23 | 51.99144 | 12.14016 | 38450 ft | 496 kts | 287° |
| 2026-04-29 19:23 | 52.00501 | 12.03148 | 38449 ft | 496 kts | 287° |
| 2026-04-29 19:24 | 52.01563 | 11.92045 | 38445 ft | 503 kts | 277° |
| 2026-04-29 19:24 | 52.01469 | 11.80612 | 38421 ft | 507 kts | 272° |
| 2026-04-29 19:25 | 52.01006 | 11.69159 | 38437 ft | 508 kts | 271° |
| 2026-04-29 19:25 | 52.00029 | 11.57765 | 38434 ft | 512 kts | 264° |
| 2026-04-29 19:26 | 51.98666 | 11.46350 | 38423 ft | 514 kts | 263° |
| 2026-04-29 19:26 | 51.97243 | 11.35073 | 38420 ft | 514 kts | 263° |
| 2026-04-29 19:27 | 51.95817 | 11.23695 | 38439 ft | 513 kts | 263° |
| 2026-04-29 19:27 | 51.94403 | 11.12357 | 38444 ft | 514 kts | 263° |
| 2026-04-29 19:28 | 51.92988 | 11.01055 | 38445 ft | 514 kts | 263° |
| 2026-04-29 19:28 | 51.91554 | 10.89702 | 38442 ft | 514 kts | 263° |
| 2026-04-29 19:29 | 51.90110 | 10.78367 | 38441 ft | 514 kts | 263° |
| 2026-04-29 19:29 | 51.88654 | 10.67035 | 38435 ft | 515 kts | 263° |
| 2026-04-29 19:30 | 51.87182 | 10.55672 | 38435 ft | 515 kts | 262° |
| 2026-04-29 19:30 | 51.85700 | 10.44327 | 38434 ft | 515 kts | 263° |
| 2026-04-29 19:31 | 51.84205 | 10.32957 | 38427 ft | 515 kts | 262° |
| 2026-04-29 19:31 | 51.82715 | 10.21730 | 38423 ft | 515 kts | 262° |
| 2026-04-29 19:32 | 51.81201 | 10.10406 | 38421 ft | 514 kts | 262° |
| 2026-04-29 19:32 | 51.79677 | 9.99095 | 37665 ft | 516 kts | 262° |
| 2026-04-29 19:32 | 51.78907 | 9.93402 | 36905 ft | 517 kts | 261° |
| 2026-04-29 19:33 | 51.78139 | 9.87760 | 36209 ft | 518 kts | 261° |
| 2026-04-29 19:33 | 51.77368 | 9.82108 | 35452 ft | 520 kts | 261° |
| 2026-04-29 19:33 | 51.76573 | 9.76309 | 34657 ft | 524 kts | 261° |
| 2026-04-29 19:33 | 51.75793 | 9.70634 | 33779 ft | 528 kts | 260° |
| 2026-04-29 19:34 | 51.74993 | 9.64851 | 33022 ft | 528 kts | 260° |
| 2026-04-29 19:34 | 51.74187 | 9.59052 | 32290 ft | 529 kts | 260° |
| 2026-04-29 19:34 | 51.73377 | 9.53246 | 31546 ft | 530 kts | 260° |
| 2026-04-29 19:34 | 51.72530 | 9.47437 | 30794 ft | 533 kts | 257° |
| 2026-04-29 19:35 | 51.71301 | 9.41781 | 29935 ft | 538 kts | 248° |
| 2026-04-29 19:35 | 51.69602 | 9.36420 | 29140 ft | 539 kts | 242° |
| 2026-04-29 19:35 | 51.67701 | 9.31229 | 28520 ft | 536 kts | 239° |
| 2026-04-29 19:35 | 51.65714 | 9.26165 | 27960 ft | 532 kts | 238° |
| 2026-04-29 19:36 | 51.63707 | 9.21202 | 27415 ft | 527 kts | 238° |
| 2026-04-29 19:36 | 51.61706 | 9.16285 | 26896 ft | 523 kts | 238° |
| 2026-04-29 19:36 | 51.59720 | 9.11394 | 26367 ft | 519 kts | 238° |
| 2026-04-29 19:36 | 51.57759 | 9.06533 | 25864 ft | 514 kts | 238° |
| 2026-04-29 19:37 | 51.55828 | 9.01727 | 25356 ft | 510 kts | 238° |
| 2026-04-29 19:37 | 51.54563 | 8.98572 | 25050 ft | 507 kts | 238° |
| 2026-04-29 19:37 | 51.52050 | 8.92293 | 24390 ft | 502 kts | 238° |
| 2026-04-29 19:37 | 51.50161 | 8.87582 | 23898 ft | 498 kts | 238° |
| 2026-04-29 19:38 | 51.48296 | 8.82937 | 23281 ft | 494 kts | 238° |
| 2026-04-29 19:38 | 51.46438 | 8.78319 | 22729 ft | 490 kts | 238° |
| 2026-04-29 19:38 | 51.44593 | 8.73744 | 22165 ft | 486 kts | 238° |
| 2026-04-29 19:38 | 51.42768 | 8.69224 | 21637 ft | 482 kts | 238° |
| 2026-04-29 19:39 | 51.40952 | 8.64738 | 21063 ft | 478 kts | 238° |
| 2026-04-29 19:39 | 51.39149 | 8.60289 | 20575 ft | 473 kts | 237° |
| 2026-04-29 19:39 | 51.37384 | 8.55942 | 20055 ft | 469 kts | 237° |
| 2026-04-29 19:39 | 51.35608 | 8.51577 | 19521 ft | 466 kts | 237° |
| 2026-04-29 19:40 | 51.33851 | 8.47263 | 18989 ft | 463 kts | 237° |
| 2026-04-29 19:40 | 51.32090 | 8.42947 | 18477 ft | 459 kts | 237° |
| 2026-04-29 19:40 | 51.30351 | 8.38696 | 17887 ft | 455 kts | 237° |
| 2026-04-29 19:40 | 51.28636 | 8.34510 | 17374 ft | 450 kts | 237° |
| 2026-04-29 19:41 | 51.26916 | 8.30318 | 16872 ft | 445 kts | 237° |
| 2026-04-29 19:41 | 51.25235 | 8.26226 | 16440 ft | 439 kts | 237° |
| 2026-04-29 19:41 | 51.23562 | 8.22160 | 15888 ft | 435 kts | 237° |
| 2026-04-29 19:41 | 51.21906 | 8.18140 | 15348 ft | 432 kts | 237° |
| 2026-04-29 19:42 | 51.20266 | 8.14165 | 14890 ft | 427 kts | 237° |
| 2026-04-29 19:42 | 51.19186 | 8.11552 | 14559 ft | 424 kts | 237° |
| 2026-04-29 19:42 | 51.17019 | 8.06313 | 13851 ft | 418 kts | 237° |
| 2026-04-29 19:42 | 51.15447 | 8.02520 | 13280 ft | 414 kts | 237° |
| 2026-04-29 19:43 | 51.13837 | 7.98642 | 12693 ft | 411 kts | 237° |
| 2026-04-29 19:43 | 51.12288 | 7.94916 | 12401 ft | 407 kts | 237° |
| 2026-04-29 19:43 | 51.10723 | 7.91159 | 12334 ft | 407 kts | 236° |
| 2026-04-29 19:43 | 51.09153 | 7.87391 | 12341 ft | 404 kts | 236° |
| 2026-04-29 19:44 | 51.07652 | 7.83796 | 12344 ft | 386 kts | 236° |
| 2026-04-29 19:44 | 51.06211 | 7.80319 | 12358 ft | 368 kts | 239° |
| 2026-04-29 19:44 | 51.05223 | 7.76690 | 12352 ft | 348 kts | 258° |
| 2026-04-29 19:44 | 51.04939 | 7.73008 | 12335 ft | 329 kts | 269° |
| 2026-04-29 19:45 | 51.04840 | 7.69443 | 12336 ft | 315 kts | 270° |
| 2026-04-29 19:45 | 51.04764 | 7.65975 | 12335 ft | 314 kts | 270° |
| 2026-04-29 19:45 | 51.04687 | 7.62495 | 12335 ft | 315 kts | 270° |
| 2026-04-29 19:45 | 51.04611 | 7.59006 | 12334 ft | 316 kts | 270° |
| 2026-04-29 19:46 | 51.04536 | 7.55504 | 12320 ft | 317 kts | 270° |
| 2026-04-29 19:46 | 51.04459 | 7.52003 | 12337 ft | 318 kts | 270° |
| 2026-04-29 19:46 | 51.04381 | 7.48480 | 12319 ft | 318 kts | 270° |
| 2026-04-29 19:46 | 51.04304 | 7.44981 | 12318 ft | 318 kts | 270° |
| 2026-04-29 19:47 | 51.04225 | 7.41499 | 12326 ft | 318 kts | 270° |
| 2026-04-29 19:47 | 51.03855 | 7.37999 | 12315 ft | 321 kts | 250° |
| 2026-04-29 19:47 | 51.02714 | 7.35012 | 12334 ft | 320 kts | 226° |
| 2026-04-29 19:47 | 51.00932 | 7.32955 | 12311 ft | 317 kts | 201° |
| 2026-04-29 19:48 | 50.98826 | 7.32160 | 12275 ft | 309 kts | 180° |
| 2026-04-29 19:48 | 50.97408 | 7.32127 | 12103 ft | 303 kts | 175° |
| 2026-04-29 19:48 | 50.94604 | 7.32314 | 11476 ft | 304 kts | 173° |
| 2026-04-29 19:48 | 50.92495 | 7.32482 | 11083 ft | 303 kts | 173° |
| 2026-04-29 19:49 | 50.90403 | 7.32643 | 10730 ft | 300 kts | 173° |
| 2026-04-29 19:49 | 50.88306 | 7.32802 | 10360 ft | 299 kts | 173° |
| 2026-04-29 19:49 | 50.86240 | 7.32952 | 10064 ft | 293 kts | 173° |
| 2026-04-29 19:49 | 50.84236 | 7.33087 | 9878 ft | 283 kts | 173° |
| 2026-04-29 19:50 | 50.82293 | 7.33013 | 9662 ft | 278 kts | 186° |
| 2026-04-29 19:50 | 50.80535 | 7.31868 | 9402 ft | 278 kts | 214° |
| 2026-04-29 19:50 | 50.79307 | 7.29617 | 9327 ft | 270 kts | 243° |
| 2026-04-29 19:50 | 50.78756 | 7.26780 | 9326 ft | 272 kts | 260° |
| 2026-04-29 19:51 | 50.78456 | 7.23811 | 9313 ft | 273 kts | 263° |
| 2026-04-29 19:51 | 50.78194 | 7.20845 | 9319 ft | 273 kts | 263° |
| 2026-04-29 19:51 | 50.77933 | 7.17851 | 9320 ft | 273 kts | 263° |
| 2026-04-29 19:51 | 50.77675 | 7.14871 | 9320 ft | 273 kts | 263° |
| 2026-04-29 19:52 | 50.77420 | 7.11930 | 9317 ft | 273 kts | 263° |
| 2026-04-29 19:52 | 50.77164 | 7.08982 | 9319 ft | 273 kts | 263° |
| 2026-04-29 19:52 | 50.76904 | 7.05982 | 9319 ft | 273 kts | 263° |
| 2026-04-29 19:52 | 50.76646 | 7.03012 | 9326 ft | 273 kts | 263° |
| 2026-04-29 19:53 | 50.76386 | 7.00007 | 9320 ft | 275 kts | 263° |
| 2026-04-29 19:53 | 50.76130 | 6.97015 | 9319 ft | 276 kts | 263° |
| 2026-04-29 19:53 | 50.75873 | 6.94007 | 9316 ft | 276 kts | 263° |
| 2026-04-29 19:53 | 50.75618 | 6.91000 | 9317 ft | 276 kts | 263° |
| 2026-04-29 19:54 | 50.75102 | 6.84991 | 9315 ft | 276 kts | 263° |
| 2026-04-29 19:54 | 50.74843 | 6.81984 | 9314 ft | 276 kts | 263° |
| 2026-04-29 19:54 | 50.74854 | 6.79026 | 9314 ft | 272 kts | 285° |
| 2026-04-29 19:55 | 50.75658 | 6.76382 | 9318 ft | 263 kts | 315° |
| 2026-04-29 19:55 | 50.77047 | 6.74670 | 9329 ft | 254 kts | 338° |
| 2026-04-29 19:55 | 50.78656 | 6.73495 | 9317 ft | 253 kts | 342° |
| 2026-04-29 19:55 | 50.80287 | 6.72425 | 9315 ft | 254 kts | 343° |
| 2026-04-29 19:56 | 50.81917 | 6.71369 | 9323 ft | 254 kts | 343° |
| 2026-04-29 19:56 | 50.83545 | 6.70313 | 9321 ft | 254 kts | 343° |
| 2026-04-29 19:56 | 50.85186 | 6.69246 | 9323 ft | 254 kts | 343° |
| 2026-04-29 19:56 | 50.86814 | 6.68186 | 9323 ft | 254 kts | 343° |
| 2026-04-29 19:57 | 50.88453 | 6.67118 | 9323 ft | 254 kts | 343° |
| 2026-04-29 19:57 | 50.89527 | 6.66418 | 9319 ft | 254 kts | 343° |
| 2026-04-29 19:57 | 50.91698 | 6.65001 | 9319 ft | 254 kts | 343° |
| 2026-04-29 19:57 | 50.93333 | 6.63933 | 9320 ft | 254 kts | 343° |
| 2026-04-29 19:58 | 50.94960 | 6.62869 | 9318 ft | 254 kts | 343° |
| 2026-04-29 19:58 | 50.96594 | 6.61801 | 9315 ft | 254 kts | 343° |
| 2026-04-29 19:58 | 50.97680 | 6.61092 | 9315 ft | 254 kts | 343° |
| 2026-04-29 19:58 | 50.99911 | 6.60280 | 9249 ft | 243 kts | 9° |
| 2026-04-29 19:59 | 51.00996 | 6.60680 | 8995 ft | 234 kts | 28° |
| 2026-04-29 19:59 | 51.02476 | 6.62947 | 8407 ft | 225 kts | 68° |
| 2026-04-29 19:59 | 51.02725 | 6.64555 | 8107 ft | 226 kts | 88° |
| 2026-04-29 19:59 | 51.02225 | 6.67751 | 7597 ft | 227 kts | 111° |
| 2026-04-29 20:00 | 51.01792 | 6.69259 | 7416 ft | 225 kts | 112° |
| 2026-04-29 20:00 | 51.01127 | 6.71484 | 7326 ft | 222 kts | 113° |
| 2026-04-29 20:00 | 51.00456 | 6.73714 | 7319 ft | 225 kts | 113° |
| 2026-04-29 20:00 | 50.99779 | 6.75962 | 7319 ft | 225 kts | 113° |
| 2026-04-29 20:01 | 50.99102 | 6.78212 | 7278 ft | 226 kts | 113° |
| 2026-04-29 20:01 | 50.98411 | 6.80521 | 6775 ft | 240 kts | 113° |
| 2026-04-29 20:01 | 50.97691 | 6.82959 | 6214 ft | 247 kts | 113° |
| 2026-04-29 20:01 | 50.96979 | 6.85399 | 6022 ft | 238 kts | 113° |
| 2026-04-29 20:02 | 50.96325 | 6.87723 | 6000 ft | 222 kts | 109° |
| 2026-04-29 20:02 | 50.96109 | 6.90068 | 6026 ft | 216 kts | 82° |
| 2026-04-29 20:02 | 50.96610 | 6.92338 | 6025 ft | 220 kts | 65° |
| 2026-04-29 20:02 | 50.97098 | 6.93808 | 6003 ft | 222 kts | 64° |
| 2026-04-29 20:03 | 50.98097 | 6.96636 | 6022 ft | 223 kts | 63° |
| 2026-04-29 20:03 | 50.98867 | 6.98788 | 6020 ft | 223 kts | 63° |
| 2026-04-29 20:03 | 50.99637 | 7.00923 | 6001 ft | 223 kts | 62° |
| 2026-04-29 20:03 | 51.00682 | 7.02735 | 6021 ft | 229 kts | 36° |
| 2026-04-29 20:04 | 51.02201 | 7.03476 | 6021 ft | 238 kts | 5° |
| 2026-04-29 20:04 | 51.03804 | 7.02913 | 6022 ft | 233 kts | 340° |
| 2026-04-29 20:04 | 51.05180 | 7.01742 | 6025 ft | 215 kts | 334° |
| 2026-04-29 20:04 | 51.06420 | 7.00555 | 5985 ft | 204 kts | 333° |
| 2026-04-29 20:05 | 51.07620 | 6.99391 | 5645 ft | 204 kts | 333° |
| 2026-04-29 20:05 | 51.08850 | 6.98205 | 5283 ft | 207 kts | 333° |
| 2026-04-29 20:05 | 51.09990 | 6.96790 | 4808 ft | 213 kts | 313° |
| 2026-04-29 20:05 | 51.10477 | 6.94462 | 3447 ft | 246 kts | 263° |